Weather at Alfred Hospital Helipad

Public forecast

Using degrees Celsius for public forecast. Weather courtesy of forecast.io.

Closest aviation weather report (METAR) to Alfred Hospital Helipad

Report is more than 6 hours old.

Closest report is Melbourne International Airport, 12.2 nm (22.7 km) NNW.

2024/06/24 06:30 (retrieved 1 day ago)

YMML 240630Z 03018KT 9999 FEW028 BKN200 11/04 Q1014 RF000/0000

Closest aviation forecast (TAF) to Alfred Hospital Helipad

Forecast is more than 12 hours old.

Closest forecast is Melbourne International Airport, 12.2 nm (22.7 km) NNW.

2024/06/24 21:51 (retrieved 12 hours ago)

TAF YMML 241959Z 2421/2600 01018G28KT 9999 SCT045 FM250600 01012KT 9999 FEW030 FM251500 01014KT 9999 -SHRA FEW025 SCT040